createdAt,value
2017-05-03T00:02:10.338Z,48.80
2017-05-03T00:04:39.138Z,40.17
2017-05-03T00:09:50.897Z,41.52
2017-05-03T00:12:19.537Z,41.82
2017-05-03T00:30:17.138Z,39.78
2017-05-03T00:32:45.543Z,38.62
2017-05-03T00:35:13.927Z,41.92
2017-05-03T00:37:43.197Z,44.38
2017-05-03T00:40:12.321Z,38.03
2017-05-03T00:42:41.370Z,43.42
2017-05-03T00:45:09.712Z,40.32
2017-05-03T00:47:38.030Z,38.60
2017-05-03T00:50:07.322Z,41.73
2017-05-03T00:52:35.776Z,39.15
2017-05-03T00:55:04.099Z,40.73
2017-05-03T00:57:33.092Z,35.72
2017-05-03T01:00:02.241Z,41.63
2017-05-03T01:02:31.994Z,42.42
2017-05-03T01:05:00.455Z,39.58
2017-05-03T01:07:28.805Z,42.45
2017-05-03T01:10:03.237Z,42.00
2017-05-03T01:12:31.553Z,39.88
2017-05-03T01:14:59.951Z,41.12
2017-05-03T01:17:28.427Z,39.47
2017-05-03T01:19:56.735Z,41.68
2017-05-03T01:22:25.116Z,39.63
2017-05-03T01:24:53.989Z,38.30
2017-05-03T01:27:23.011Z,41.20
2017-05-03T01:29:51.368Z,40.75
2017-05-03T01:32:20.596Z,39.18
2017-05-03T01:34:49.617Z,37.18
2017-05-03T01:37:17.945Z,38.52
2017-05-03T01:39:46.445Z,37.70
2017-05-03T01:42:14.833Z,46.35
2017-05-03T01:44:43.178Z,37.52
2017-05-03T01:47:12.762Z,43.65
2017-05-03T01:49:41.130Z,42.33
2017-05-03T01:52:09.447Z,38.53
2017-05-03T01:54:38.137Z,40.13
2017-05-03T01:57:06.537Z,40.98
2017-05-03T01:59:34.849Z,44.88
2017-05-03T02:02:03.165Z,42.78
2017-05-03T02:04:32.929Z,41.47
2017-05-03T02:07:01.258Z,39.18
2017-05-03T02:09:29.674Z,48.32
2017-05-03T02:11:58.002Z,45.78
2017-05-03T02:14:27.135Z,41.40
2017-05-03T02:16:55.474Z,42.35
2017-05-03T02:19:24.538Z,40.67
2017-05-03T02:21:52.905Z,42.50
2017-05-03T02:24:21.889Z,43.72
2017-05-03T02:26:50.240Z,44.20
2017-05-03T02:29:18.597Z,41.22
2017-05-03T02:31:47.687Z,41.35
2017-05-03T02:34:17.459Z,43.75
2017-05-03T02:36:45.781Z,38.70
2017-05-03T02:39:14.870Z,38.83
2017-05-03T02:41:44.390Z,36.22
2017-05-03T02:44:12.705Z,35.55
2017-05-03T02:46:41.044Z,35.18
2017-05-03T02:49:09.364Z,36.25
2017-05-03T02:51:37.846Z,36.83
2017-05-03T02:54:06.237Z,36.75
2017-05-03T02:56:34.563Z,34.28
2017-05-03T02:59:03.707Z,32.73
2017-05-03T03:01:32.038Z,39.17
2017-05-03T03:04:00.335Z,37.45
2017-05-03T03:06:28.648Z,32.73
2017-05-03T03:08:56.977Z,31.42
2017-05-03T03:11:25.310Z,28.72
2017-05-03T03:13:53.670Z,32.07
2017-05-03T03:16:22.006Z,35.90
2017-05-03T03:18:50.411Z,32.58
2017-05-03T03:21:18.751Z,37.00
2017-05-03T03:23:47.814Z,40.92
2017-05-03T03:26:17.061Z,37.60
2017-05-03T03:28:45.387Z,39.00
2017-05-03T03:31:13.969Z,39.18
2017-05-03T03:33:42.331Z,40.90
2017-05-03T03:36:10.774Z,38.88
2017-05-03T03:38:39.117Z,44.08
2017-05-03T03:41:07.452Z,39.38
2017-05-03T03:43:36.214Z,40.33
2017-05-03T03:46:04.516Z,36.62
2017-05-03T03:48:32.997Z,46.38
2017-05-03T03:51:01.301Z,37.33
2017-05-03T03:53:29.612Z,42.33
2017-05-03T03:55:57.951Z,38.68
2017-05-03T03:58:26.444Z,44.00
2017-05-03T04:00:55.580Z,43.07
2017-05-03T04:03:24.849Z,41.47
2017-05-03T04:08:35.118Z,43.38
2017-05-03T04:11:07.082Z,38.42
2017-05-03T04:13:35.489Z,38.65
2017-05-03T04:16:04.572Z,42.00
2017-05-03T04:18:33.686Z,42.08
2017-05-03T04:21:10.814Z,41.52
2017-05-03T04:23:39.328Z,49.30
2017-05-03T04:26:08.574Z,40.45
2017-05-03T04:28:37.034Z,42.48
2017-05-03T04:31:08.974Z,38.42
2017-05-03T04:33:40.999Z,40.97
2017-05-03T04:36:14.196Z,39.72
2017-05-03T04:38:42.577Z,40.48
2017-05-03T04:41:11.593Z,43.98
2017-05-03T04:43:39.934Z,38.73
2017-05-03T04:46:08.297Z,40.08
2017-05-03T04:48:36.828Z,41.58
2017-05-03T04:51:05.158Z,36.88
2017-05-03T04:53:33.718Z,38.07
2017-05-03T04:56:02.806Z,44.22
2017-05-03T04:58:31.934Z,46.62
2017-05-03T05:01:00.379Z,42.40
2017-05-03T05:03:30.316Z,41.88
2017-05-03T05:05:58.651Z,44.05
2017-05-03T05:08:27.727Z,40.00
2017-05-03T05:10:56.106Z,45.20
2017-05-03T05:13:24.455Z,43.90
2017-05-03T05:15:52.786Z,46.05
2017-05-03T05:18:21.188Z,42.02
2017-05-03T05:20:50.776Z,45.80
2017-05-03T05:23:19.076Z,42.52
2017-05-03T05:25:48.146Z,40.85
2017-05-03T05:28:16.721Z,41.28
2017-05-03T05:33:39.166Z,48.80
2017-05-03T05:36:08.730Z,39.83
2017-05-03T05:38:37.513Z,39.52
2017-05-03T05:41:05.883Z,40.53
2017-05-03T05:43:35.033Z,37.75
2017-05-03T05:46:04.636Z,39.20
2017-05-03T05:48:33.079Z,40.67
2017-05-03T05:53:55.014Z,38.87
2017-05-03T05:56:23.342Z,32.38
2017-05-03T05:58:51.691Z,38.58
2017-05-03T06:01:27.544Z,32.80
2017-05-03T06:03:56.029Z,30.57
2017-05-03T06:06:26.187Z,34.95
2017-05-03T06:08:56.150Z,34.07
2017-05-03T06:11:24.711Z,33.80
2017-05-03T06:13:59.023Z,39.63
2017-05-03T06:16:32.464Z,32.57
2017-05-03T06:19:00.848Z,30.75
2017-05-03T06:21:35.295Z,37.62
2017-05-03T06:24:05.019Z,32.68
2017-05-03T06:26:34.759Z,31.22
2017-05-03T06:31:56.928Z,34.32
2017-05-03T06:34:25.418Z,36.48
2017-05-03T06:36:53.838Z,43.05
2017-05-03T06:39:22.202Z,35.50
2017-05-03T06:41:50.608Z,37.73
2017-05-03T06:44:18.985Z,41.10
2017-05-03T06:46:48.195Z,37.78
2017-05-03T06:49:16.774Z,34.78
2017-05-03T06:51:46.615Z,44.93
2017-05-03T06:54:15.070Z,38.40
2017-05-03T06:56:44.215Z,34.95
2017-05-03T06:59:13.042Z,37.70
2017-05-03T07:01:41.620Z,39.57
2017-05-03T07:04:10.373Z,38.22
2017-05-03T07:06:38.782Z,41.02
2017-05-03T07:09:07.266Z,39.05
2017-05-03T07:11:35.607Z,45.50
2017-05-03T07:14:03.951Z,45.65
2017-05-03T07:16:33.115Z,36.70
2017-05-03T07:19:01.447Z,36.40
2017-05-03T07:21:29.892Z,36.40
2017-05-03T07:26:47.719Z,42.55
2017-05-03T07:29:17.332Z,39.80
2017-05-03T07:31:45.753Z,36.62
2017-05-03T07:34:14.221Z,40.68
2017-05-03T07:36:44.148Z,37.65
2017-05-03T07:39:15.349Z,37.80
2017-05-03T07:41:49.359Z,36.22
2017-05-03T07:44:18.492Z,39.37
2017-05-03T07:46:58.919Z,37.08
2017-05-03T07:49:27.390Z,38.43
2017-05-03T07:51:57.297Z,34.02
2017-05-03T07:54:27.495Z,35.57
2017-05-03T07:56:56.804Z,33.65
2017-05-03T07:59:25.184Z,35.35
2017-05-03T08:01:53.639Z,36.18
2017-05-03T08:04:28.962Z,41.73
2017-05-03T08:06:57.567Z,35.88
2017-05-03T08:09:28.564Z,35.05
2017-05-03T08:11:57.106Z,34.60
2017-05-03T08:14:25.499Z,35.00
2017-05-03T08:16:54.369Z,34.13
2017-05-03T08:19:22.704Z,38.63
2017-05-03T08:21:51.151Z,40.47
2017-05-03T08:24:20.486Z,40.50
2017-05-03T08:26:48.966Z,40.38
2017-05-03T08:29:17.323Z,36.65
2017-05-03T08:31:45.682Z,34.82
2017-05-03T08:34:14.123Z,39.58
2017-05-03T08:36:43.253Z,39.77
2017-05-03T08:39:11.601Z,40.17
2017-05-03T08:41:40.009Z,42.73
2017-05-03T08:44:08.376Z,38.87
2017-05-03T08:46:36.710Z,41.13
2017-05-03T08:49:13.816Z,39.12
2017-05-03T08:51:53.892Z,35.37
2017-05-03T08:57:03.014Z,34.37
2017-05-03T09:02:42.802Z,34.72
2017-05-03T09:05:27.630Z,44.97
2017-05-03T09:10:37.404Z,31.92
2017-05-03T09:13:07.712Z,35.32
2017-05-03T09:15:42.067Z,36.50
2017-05-03T09:18:11.875Z,33.27
2017-05-03T09:23:41.762Z,34.45
2017-05-03T09:26:18.200Z,43.90
2017-05-03T09:28:58.966Z,30.80
2017-05-03T09:31:53.919Z,30.20
2017-05-03T09:34:38.708Z,32.88
2017-05-03T09:37:08.739Z,33.42
2017-05-03T09:39:38.743Z,35.33
2017-05-03T09:42:18.808Z,31.30
2017-05-03T09:44:50.348Z,29.73
2017-05-03T09:47:20.065Z,28.95
2017-05-03T09:50:10.983Z,28.53
2017-05-03T09:52:39.478Z,28.72
2017-05-03T09:55:09.362Z,29.48
2017-05-03T09:57:41.541Z,28.45
2017-05-03T10:00:10.230Z,27.35
2017-05-03T10:02:38.618Z,26.77
2017-05-03T10:05:07.028Z,29.17
2017-05-03T10:07:35.515Z,25.93
2017-05-03T10:10:04.341Z,27.08
2017-05-03T10:12:33.569Z,23.50
2017-05-03T10:15:02.015Z,26.42
2017-05-03T10:17:30.453Z,25.67
2017-05-03T10:19:59.765Z,26.62
2017-05-03T10:22:28.197Z,27.58
2017-05-03T10:24:56.625Z,26.13
2017-05-03T10:27:25.010Z,26.87
2017-05-03T10:29:53.381Z,26.35
2017-05-03T10:32:24.322Z,23.20
2017-05-03T10:34:52.763Z,24.02
2017-05-03T10:37:21.143Z,23.92
2017-05-03T10:39:49.561Z,22.28
2017-05-03T10:42:17.904Z,47.00
2017-05-03T10:44:46.490Z,23.52
2017-05-03T10:47:14.868Z,25.77
2017-05-03T10:49:43.280Z,24.13
2017-05-03T10:52:13.380Z,23.12
2017-05-03T10:54:42.242Z,23.50
2017-05-03T10:57:10.615Z,23.28
2017-05-03T10:59:38.973Z,23.85
2017-05-03T11:02:09.319Z,24.40
2017-05-03T11:04:37.702Z,21.38
2017-05-03T11:09:42.755Z,23.25
2017-05-03T11:12:11.113Z,23.88
2017-05-03T11:14:40.328Z,21.23
2017-05-03T11:17:08.740Z,20.67
2017-05-03T11:19:37.169Z,20.42
2017-05-03T11:22:09.688Z,20.25
2017-05-03T11:24:38.978Z,24.62
2017-05-03T11:27:07.459Z,21.22
2017-05-03T11:32:44.019Z,21.27
2017-05-03T11:35:12.973Z,19.52
2017-05-03T11:37:42.392Z,18.47
2017-05-03T11:40:11.534Z,15.42
2017-05-03T11:42:39.984Z,16.98
2017-05-03T11:45:10.044Z,16.67
2017-05-03T11:47:38.522Z,16.58
2017-05-03T11:50:06.924Z,17.25
2017-05-03T11:52:36.704Z,21.80
2017-05-03T11:55:05.224Z,16.10
2017-05-03T11:57:34.419Z,17.10
2017-05-03T12:00:03.591Z,17.68
2017-05-03T12:02:32.870Z,15.97
2017-05-03T12:05:01.289Z,16.82
2017-05-03T12:07:29.685Z,16.35
2017-05-03T12:09:58.825Z,13.40
2017-05-03T12:12:27.246Z,14.73
2017-05-03T12:14:55.626Z,15.68
2017-05-03T12:17:24.776Z,15.53
2017-05-03T12:19:53.178Z,15.23
2017-05-03T12:22:22.122Z,14.62
2017-05-03T12:24:50.832Z,16.02
2017-05-03T12:27:22.588Z,15.87
2017-05-03T12:29:50.944Z,16.27
2017-05-03T12:32:19.518Z,17.25
2017-05-03T12:34:47.896Z,15.45
2017-05-03T12:37:16.403Z,14.38
2017-05-03T12:39:45.495Z,14.25
2017-05-03T12:42:14.618Z,15.65
2017-05-03T12:44:43.036Z,16.57
2017-05-03T12:47:11.363Z,16.27
2017-05-03T12:49:39.734Z,16.13
2017-05-03T12:52:08.942Z,13.10
2017-05-03T12:54:37.262Z,14.42
2017-05-03T12:57:05.688Z,17.85
2017-05-03T12:59:34.569Z,14.72
2017-05-03T13:02:03.642Z,15.57
2017-05-03T13:04:31.973Z,15.72
2017-05-03T13:07:00.303Z,15.30
2017-05-03T13:09:28.691Z,14.75
2017-05-03T13:11:59.239Z,15.35
2017-05-03T13:14:27.623Z,16.37
2017-05-03T13:16:57.077Z,14.52
2017-05-03T13:22:33.675Z,15.35
2017-05-03T13:25:02.727Z,15.03
2017-05-03T13:27:31.560Z,14.20
2017-05-03T13:29:59.983Z,15.88
2017-05-03T13:32:28.377Z,15.90
2017-05-03T13:34:56.842Z,14.17
2017-05-03T13:37:25.381Z,15.78
2017-05-03T13:39:54.109Z,15.30
2017-05-03T13:42:22.618Z,15.93
2017-05-03T13:44:51.823Z,15.05
2017-05-03T13:47:20.946Z,16.57
2017-05-03T13:49:53.069Z,15.92
2017-05-03T13:52:21.532Z,17.78
2017-05-03T13:54:50.859Z,17.78
2017-05-03T13:57:19.419Z,16.78
2017-05-03T14:02:26.595Z,17.45
2017-05-03T14:04:54.957Z,19.35
2017-05-03T14:07:23.437Z,16.83
2017-05-03T14:09:51.818Z,16.00
2017-05-03T14:12:20.313Z,16.73
2017-05-03T14:14:49.547Z,14.62
2017-05-03T14:17:21.883Z,16.53
2017-05-03T14:19:50.519Z,16.37
2017-05-03T14:22:19.075Z,15.75
2017-05-03T14:24:48.251Z,14.50
2017-05-03T14:27:16.572Z,18.52
2017-05-03T14:29:44.964Z,14.37
2017-05-03T14:32:13.534Z,13.27
2017-05-03T14:34:42.746Z,14.33
2017-05-03T14:37:11.272Z,15.18
2017-05-03T14:39:40.475Z,12.25
2017-05-03T14:42:08.949Z,14.72
2017-05-03T14:44:38.451Z,14.60
2017-05-03T14:47:08.343Z,14.27
2017-05-03T14:49:38.491Z,14.28
2017-05-03T14:52:07.659Z,15.38
2017-05-03T14:54:36.063Z,14.20
2017-05-03T14:57:05.066Z,16.38
2017-05-03T14:59:34.949Z,14.17
2017-05-03T15:02:03.287Z,16.83
2017-05-03T15:04:38.704Z,18.33
2017-05-03T15:07:07.794Z,16.60
2017-05-03T15:09:37.805Z,16.77
2017-05-03T15:12:09.690Z,16.02
2017-05-03T15:14:38.662Z,17.07
2017-05-03T15:17:08.013Z,20.52
2017-05-03T15:19:37.157Z,15.57
2017-05-03T15:22:05.482Z,18.05
2017-05-03T15:24:33.826Z,19.85
2017-05-03T15:27:02.180Z,21.50
2017-05-03T15:29:30.545Z,17.77
2017-05-03T15:31:59.596Z,19.42
2017-05-03T15:34:28.004Z,20.85
2017-05-03T15:36:56.370Z,14.97
2017-05-03T15:39:24.714Z,20.28
2017-05-03T15:41:53.087Z,15.32
2017-05-03T15:44:21.431Z,18.27
2017-05-03T15:46:50.918Z,16.13
2017-05-03T15:49:19.949Z,18.48
2017-05-03T15:51:48.313Z,16.35
2017-05-03T15:54:16.708Z,14.70
2017-05-03T15:56:45.164Z,16.28
2017-05-03T15:59:14.253Z,16.23
2017-05-03T16:01:42.621Z,13.57
2017-05-03T16:04:10.962Z,15.65
2017-05-03T16:06:39.293Z,21.35
2017-05-03T16:09:07.633Z,13.68
2017-05-03T16:11:36.673Z,14.42
2017-05-03T16:14:06.016Z,14.73
2017-05-03T16:16:37.461Z,12.15
2017-05-03T16:19:08.232Z,13.45
2017-05-03T16:21:40.448Z,11.88
2017-05-03T16:24:11.855Z,16.78
2017-05-03T16:26:40.269Z,14.82
2017-05-03T16:29:08.692Z,12.87
2017-05-03T16:31:37.025Z,13.08
2017-05-03T16:34:05.407Z,12.82
2017-05-03T16:36:33.821Z,23.57
2017-05-03T16:39:02.205Z,17.50
2017-05-03T16:41:30.583Z,13.82
2017-05-03T16:43:59.210Z,15.32
2017-05-03T16:46:28.119Z,15.52
2017-05-03T16:48:56.480Z,14.35
2017-05-03T16:51:27.230Z,12.80
2017-05-03T16:53:55.718Z,13.65
2017-05-03T16:56:24.856Z,13.87
2017-05-03T16:58:53.298Z,11.72
2017-05-03T17:01:21.667Z,12.95
2017-05-03T17:03:50.151Z,14.65
2017-05-03T17:06:18.476Z,12.87
2017-05-03T17:08:46.882Z,15.32
2017-05-03T17:11:16.461Z,14.65
2017-05-03T17:13:44.870Z,13.27
2017-05-03T17:16:14.462Z,14.73
2017-05-03T17:18:43.866Z,21.12
2017-05-03T17:21:12.851Z,16.33
2017-05-03T17:23:41.346Z,13.27
2017-05-03T17:26:09.890Z,14.13
2017-05-03T17:28:38.284Z,13.77
2017-05-03T17:31:11.363Z,14.80
2017-05-03T17:33:39.804Z,20.25
2017-05-03T17:36:11.474Z,13.10
2017-05-03T17:38:44.695Z,14.18
2017-05-03T17:41:13.113Z,15.53
2017-05-03T17:43:41.490Z,13.20
2017-05-03T17:46:11.662Z,12.67
2017-05-03T17:49:10.526Z,11.52
2017-05-03T18:40:12.820Z,13.80
2017-05-03T18:42:42.042Z,19.45
2017-05-03T18:45:10.504Z,15.70
2017-05-03T18:47:39.692Z,12.27
2017-05-03T18:50:08.198Z,14.25
2017-05-03T18:52:37.464Z,11.97
2017-05-03T18:55:06.059Z,11.97
2017-05-03T18:57:35.383Z,11.38
2017-05-03T19:00:04.661Z,13.12
2017-05-03T19:02:34.044Z,13.78
2017-05-03T19:05:03.719Z,14.78
2017-05-03T19:07:32.881Z,10.33
2017-05-03T19:10:05.494Z,12.78
2017-05-03T19:12:33.909Z,12.77
2017-05-03T19:15:06.603Z,12.90
2017-05-03T19:17:38.815Z,11.60
2017-05-03T19:20:07.360Z,11.30
2017-05-03T19:22:36.196Z,13.05
2017-05-03T19:25:06.622Z,12.80
2017-05-03T19:27:35.449Z,13.42
2017-05-03T19:30:06.998Z,10.43
2017-05-03T19:32:40.928Z,10.38
2017-05-03T19:35:10.702Z,12.72
2017-05-03T19:37:43.159Z,14.05
2017-05-03T19:40:44.385Z,12.02
2017-05-03T19:43:13.970Z,12.90
2017-05-03T19:45:43.617Z,12.20
2017-05-03T19:48:17.637Z,13.75
2017-05-03T19:50:47.440Z,11.45
2017-05-03T19:55:54.993Z,9.78
2017-05-03T19:58:24.589Z,10.98
2017-05-03T20:01:08.677Z,9.75
2017-05-03T20:03:52.230Z,14.58
2017-05-03T20:09:08.531Z,8.95
2017-05-03T20:14:29.756Z,12.10
2017-05-03T20:20:10.225Z,12.03
2017-05-03T20:22:43.051Z,9.53
2017-05-03T20:25:18.011Z,7.95
2017-05-03T20:27:47.587Z,11.92
2017-05-03T20:30:15.925Z,10.77
2017-05-03T20:32:46.821Z,8.90
2017-05-03T20:35:15.295Z,9.45
2017-05-03T20:37:44.972Z,9.98
2017-05-03T20:40:14.184Z,8.50
2017-05-03T20:42:42.563Z,11.83
2017-05-03T20:48:23.475Z,11.07
2017-05-03T20:56:25.902Z,10.63
2017-05-03T21:01:48.647Z,9.47
2017-05-03T22:09:18.166Z,9.67
2017-05-03T22:11:52.612Z,9.60
2017-05-03T22:14:30.846Z,10.98
2017-05-03T22:42:47.355Z,8.80
2017-05-03T22:51:09.594Z,9.70
2017-05-03T22:53:39.582Z,11.27
2017-05-03T22:56:09.090Z,10.47
2017-05-03T22:58:38.355Z,11.60
2017-05-03T23:04:00.644Z,11.08
2017-05-03T23:06:29.747Z,9.65
2017-05-03T23:09:24.301Z,8.58
2017-05-03T23:11:53.981Z,8.00
2017-05-03T23:14:42.401Z,8.13
2017-05-03T23:17:10.840Z,8.35
2017-05-03T23:19:39.241Z,7.57
2017-05-03T23:22:25.338Z,9.08
2017-05-03T23:24:53.767Z,8.45
2017-05-03T23:31:40.765Z,10.97
2017-05-03T23:34:12.093Z,9.63
2017-05-03T23:36:40.453Z,10.57
2017-05-03T23:42:03.739Z,10.32
2017-05-03T23:44:33.037Z,9.05
2017-05-03T23:47:02.177Z,10.28
2017-05-03T23:49:30.490Z,8.80
2017-05-03T23:51:58.865Z,8.78
2017-05-03T23:54:27.246Z,8.23
2017-05-03T23:56:56.353Z,7.78
2017-05-03T23:59:25.457Z,9.53
